Time;durP1;ratioP1;P1;durP2;ratioP2;P2;SDS_P1;SDS_P2;PMS_P1;PMS_P2;Temp;Humidity;BMP_temperature;BMP_pressure;BME280_temperature;BME280_humidity;BME280_pressure;Samples;Min_cycle;Max_cycle;Signal;HPM_P1;HPM_P2
2021/03/16 00:01:13;;;;;;;4.87;1.47;;;;;;;-144.99;96.14;52431.78;5088456;28;20633;-73
2021/03/16 00:03:40;;;;;;;2.73;1.43;;;;;;;-144.99;96.38;52452.16;5087381;28;21003;-74
2021/03/16 00:06:06;;;;;;;3.50;1.80;;;;;;;-144.99;96.45;52460.31;5088997;28;20709;-74
2021/03/16 00:08:32;;;;;;;8.20;2.07;;;;;;;-144.99;96.45;52446.06;5083142;28;20621;-74
2021/03/16 00:10:58;;;;;;;5.23;1.60;;;;;;;-144.99;96.54;52456.25;5089921;28;21013;-74
2021/03/16 00:13:24;;;;;;;6.67;1.77;;;;;;;-144.99;96.44;52427.72;5090819;28;20583;-74
2021/03/16 00:15:50;;;;;;;5.53;1.20;;;;;;;-144.99;96.38;52423.63;5089102;28;20645;-73
2021/03/16 00:18:16;;;;;;;6.03;1.73;;;;;;;-144.99;96.49;52466.44;5085877;28;21106;-74
2021/03/16 00:20:44;;;;;;;7.93;1.80;;;;;;;-144.99;96.61;52439.94;5088796;28;20249;-71
2021/03/16 00:23:11;;;;;;;2.50;1.23;;;;;;;-144.99;96.55;52480.72;5092856;28;20662;-72
2021/03/16 00:25:37;;;;;;;4.77;1.57;;;;;;;-144.99;96.61;52448.09;5089341;28;20968;-73
2021/03/16 00:28:04;;;;;;;5.60;1.40;;;;;;;-144.99;96.49;52470.50;5083663;28;21205;-72
2021/03/16 00:30:30;;;;;;;2.23;1.40;;;;;;;-144.99;96.67;52439.94;5088242;28;20622;-75
2021/03/16 00:32:56;;;;;;;4.60;1.37;;;;;;;-144.99;96.66;52488.84;5090520;28;20614;-74
2021/03/16 00:35:23;;;;;;;5.90;1.83;;;;;;;-144.99;96.78;52391.03;5088671;28;20657;-74
2021/03/16 00:37:49;;;;;;;8.37;1.70;;;;;;;-144.99;96.85;52439.94;5088318;28;20607;-74
2021/03/16 00:40:16;;;;;;;4.70;1.73;;;;;;;-144.99;96.87;52472.56;5085216;28;20633;-72
2021/03/16 00:42:42;;;;;;;3.53;2.87;;;;;;;-144.99;96.99;52435.88;5088364;28;20641;-73
2021/03/16 00:45:09;;;;;;;5.30;1.50;;;;;;;-144.99;96.93;52448.09;5087524;28;20665;-73
2021/03/16 00:47:35;;;;;;;7.37;3.87;;;;;;;-144.99;97.04;52472.56;5089348;28;20856;-74
2021/03/16 00:50:02;;;;;;;3.50;1.90;;;;;;;-144.99;97.23;52462.34;5087181;28;20656;-73
2021/03/16 00:52:28;;;;;;;6.40;1.17;;;;;;;-144.99;97.06;52458.28;5081109;28;20646;-73
2021/03/16 00:54:55;;;;;;;9.53;1.73;;;;;;;-144.99;97.05;52433.81;5088261;28;21257;-73
2021/03/16 00:57:21;;;;;;;7.03;1.47;;;;;;;-144.99;96.79;52456.25;5089739;28;20200;-73
2021/03/16 00:59:47;;;;;;;2.67;1.37;;;;;;;-144.99;97.17;52448.09;5083363;28;20770;-72
2021/03/16 01:02:13;;;;;;;7.73;1.93;;;;;;;-144.99;97.17;52431.78;5081908;28;20224;-72
2021/03/16 01:04:39;;;;;;;3.67;1.60;;;;;;;-144.99;97.13;52423.63;5088026;28;20273;-72
2021/03/16 01:07:05;;;;;;;2.73;1.23;;;;;;;-144.99;97.21;52476.63;5087493;28;21251;-72
2021/03/16 01:09:31;;;;;;;3.63;1.30;;;;;;;-144.99;97.19;52472.56;5088421;28;21307;-72
2021/03/16 01:11:58;;;;;;;5.07;2.43;;;;;;;-144.99;97.16;52431.78;5082341;28;20658;-73
2021/03/16 01:14:24;;;;;;;5.20;1.60;;;;;;;-144.99;97.20;52458.28;5086969;28;20808;-71
2021/03/16 01:16:50;;;;;;;7.33;2.30;;;;;;;-144.99;97.30;52468.47;5083990;28;20675;-72
2021/03/16 01:19:16;;;;;;;7.40;2.00;;;;;;;-144.99;97.27;52444.03;5084581;28;21333;-70
2021/03/16 01:21:42;;;;;;;4.33;1.57;;;;;;;-144.99;97.28;52407.31;5086298;28;20691;-70
2021/03/16 01:24:09;;;;;;;3.27;1.50;;;;;;;-144.99;97.41;52460.31;5085086;28;20238;-72
2021/03/16 01:26:35;;;;;;;4.83;1.80;;;;;;;-144.99;97.42;52427.72;5087127;28;21231;-72
2021/03/16 01:29:04;;;;;;;5.60;2.27;;;;;;;-144.99;97.44;52450.13;5081353;28;20626;-73
2021/03/16 01:31:30;;;;;;;4.17;1.80;;;;;;;-144.99;97.59;52464.41;5083014;28;20622;-73
2021/03/16 01:33:56;;;;;;;6.37;1.47;;;;;;;-144.99;97.58;52456.25;5087729;28;21238;-72
2021/03/16 01:36:22;;;;;;;4.13;1.70;;;;;;;-144.99;97.81;52460.31;5087812;28;20664;-71
2021/03/16 01:38:48;;;;;;;7.60;1.50;;;;;;;-144.99;97.79;52448.09;5085719;28;20293;-72
2021/03/16 01:41:14;;;;;;;4.50;2.03;;;;;;;-144.99;97.99;52472.56;5088556;28;20690;-72
2021/03/16 01:43:40;;;;;;;3.97;1.40;;;;;;;-144.99;98.30;52480.72;5082954;28;20694;-72
2021/03/16 01:46:08;;;;;;;6.17;1.40;;;;;;;-144.99;98.33;52497.00;5085830;28;20239;-72
2021/03/16 01:48:36;;;;;;;6.23;1.33;;;;;;;-144.99;98.42;52444.03;5092869;28;20610;-72
2021/03/16 01:51:06;;;;;;;1.70;1.17;;;;;;;-144.99;98.51;52435.88;5088526;28;20957;-72
2021/03/16 01:53:32;;;;;;;8.10;1.70;;;;;;;-144.99;98.87;52448.09;5086338;28;20662;-73
2021/03/16 01:55:58;;;;;;;7.17;1.77;;;;;;;-144.99;98.87;52407.31;5080126;28;20706;-74
2021/03/16 01:58:24;;;;;;;5.60;1.00;;;;;;;-144.99;98.80;52466.44;5089209;28;20629;-73
2021/03/16 02:00:50;;;;;;;6.33;1.37;;;;;;;-144.99;98.90;52509.25;5079536;28;21009;-73
2021/03/16 02:03:19;;;;;;;3.10;1.13;;;;;;;-144.99;99.04;52472.56;5086493;28;21190;-73
2021/03/16 02:05:45;;;;;;;7.00;1.60;;;;;;;-144.99;99.38;52509.25;5086109;28;20216;-71
2021/03/16 02:08:21;;;;;;;4.33;1.57;;;;;;;-144.99;99.38;52439.94;5082016;28;20622;-71
2021/03/16 02:10:55;;;;;;;3.03;1.60;;;;;;;-144.99;99.36;52464.41;5087121;28;20646;-72
2021/03/16 02:13:26;;;;;;;5.03;1.30;;;;;;;-144.99;99.62;52448.09;5087163;28;20611;-71
2021/03/16 02:15:57;;;;;;;5.87;1.30;;;;;;;-144.99;99.79;52427.72;5086604;28;20662;-71
2021/03/16 02:18:29;;;;;;;7.77;2.27;;;;;;;-144.99;99.72;52464.41;5083069;28;21562;-71
2021/03/16 02:21:06;;;;;;;2.50;1.43;;;;;;;-144.99;99.97;52509.25;5085292;28;20633;-72
2021/03/16 02:23:46;;;;;;;5.10;1.87;;;;;;;-144.99;100.00;52464.41;5090245;28;20616;-71
2021/03/16 02:26:15;;;;;;;9.00;2.30;;;;;;;-144.99;100.00;52488.84;5086217;28;20678;-71
2021/03/16 02:29:09;;;;;;;8.13;2.20;;;;;;;-144.99;100.00;52427.72;5088270;28;20634;-71
2021/03/16 02:31:38;;;;;;;5.40;2.63;;;;;;;-144.99;100.00;52456.25;5085699;28;20637;-70
2021/03/16 02:34:05;;;;;;;2.73;1.67;;;;;;;-144.99;100.00;52499.06;5091609;28;21072;-69
2021/03/16 02:36:32;;;;;;;4.77;1.50;;;;;;;-144.99;100.00;52423.63;5091363;28;20963;-72
2021/03/16 02:39:01;;;;;;;15.47;3.30;;;;;;;-144.99;100.00;52407.31;5089899;28;20755;-70
2021/03/16 02:41:29;;;;;;;8.27;1.80;;;;;;;-144.99;100.00;52480.72;5088517;28;20619;-71
2021/03/16 02:43:57;;;;;;;8.00;1.80;;;;;;;-144.99;100.00;52456.25;5087220;28;20738;-71
2021/03/16 02:46:24;;;;;;;9.17;2.37;;;;;;;-144.99;100.00;52423.63;5089013;28;21069;-71
2021/03/16 02:48:51;;;;;;;6.30;2.17;;;;;;;-144.99;100.00;52462.34;5103145;22;20688;-72
2021/03/16 02:51:18;;;;;;;15.53;2.87;;;;;;;-144.99;100.00;52444.03;5052649;28;21114;-74
2021/03/16 02:53:44;;;;;;;5.77;1.17;;;;;;;-144.99;100.00;52476.63;5050315;28;20655;-74
2021/03/16 02:56:11;;;;;;;6.63;1.23;;;;;;;-144.99;100.00;52456.25;5048267;28;20636;-72
2021/03/16 02:58:39;;;;;;;4.17;2.03;;;;;;;-144.99;100.00;52497.00;5049914;28;20697;-74
2021/03/16 03:01:07;;;;;;;7.50;1.97;;;;;;;-144.99;100.00;52488.84;5055880;28;20689;-73
2021/03/16 03:03:36;;;;;;;7.93;2.47;;;;;;;-144.99;100.00;52476.63;5052459;28;20643;-73
2021/03/16 03:06:03;;;;;;;11.83;2.80;;;;;;;-144.99;100.00;52466.44;5043302;28;20632;-73
2021/03/16 03:08:31;;;;;;;7.73;2.03;;;;;;;-144.99;100.00;52441.97;5042048;28;21033;-72
2021/03/16 03:10:57;;;;;;;9.43;2.00;;;;;;;-144.99;100.00;52444.03;5050389;28;20639;-72
2021/03/16 03:13:23;;;;;;;6.97;2.43;;;;;;;-144.99;100.00;52499.06;5051098;28;20666;-72
2021/03/16 03:15:49;;;;;;;8.80;1.80;;;;;;;-144.99;100.00;52464.41;5050861;28;20636;-72
2021/03/16 03:18:16;;;;;;;5.37;1.97;;;;;;;-144.99;100.00;52476.63;5051250;28;20719;-72
2021/03/16 03:20:42;;;;;;;5.63;2.40;;;;;;;-144.99;100.00;52460.31;5043290;28;20200;-72
2021/03/16 03:23:11;;;;;;;9.17;2.80;;;;;;;-144.99;100.00;52456.25;5048153;28;20615;-73
2021/03/16 03:25:39;;;;;;;7.50;2.27;;;;;;;-144.99;100.00;52456.25;5051326;28;20300;-73
2021/03/16 03:28:08;;;;;;;4.70;2.10;;;;;;;-144.99;100.00;52431.78;5043131;28;20636;-72
2021/03/16 03:30:35;;;;;;;12.90;5.07;;;;;;;-144.99;100.00;52460.31;5049689;28;20624;-72
2021/03/16 03:33:04;;;;;;;12.10;3.47;;;;;;;-144.99;100.00;52478.66;5049901;28;20693;-73
2021/03/16 03:35:32;;;;;;;9.13;3.13;;;;;;;-144.99;100.00;52460.31;5046550;28;20710;-72
2021/03/16 03:38:00;;;;;;;6.30;2.97;;;;;;;-144.99;100.00;52456.25;5044981;28;20612;-73
2021/03/16 03:40:27;;;;;;;10.97;3.60;;;;;;;-144.99;100.00;52474.59;5043651;28;20716;-73
2021/03/16 03:42:56;;;;;;;12.03;2.70;;;;;;;-144.99;100.00;52403.25;5045693;28;20649;-74
2021/03/16 03:45:25;;;;;;;10.47;3.20;;;;;;;-144.99;100.00;52464.41;5046067;28;20623;-73
2021/03/16 03:47:53;;;;;;;16.20;3.70;;;;;;;-144.99;100.00;52444.03;5041119;28;20715;-72
2021/03/16 03:50:19;;;;;;;15.10;4.70;;;;;;;-144.99;100.00;52476.63;5047234;28;21460;-73
2021/03/16 03:52:48;;;;;;;9.33;3.77;;;;;;;-144.99;100.00;52474.59;5048601;28;20629;-74
2021/03/16 03:55:14;;;;;;;8.43;2.67;;;;;;;-144.99;100.00;52444.03;5049230;28;20655;-73
2021/03/16 03:57:42;;;;;;;11.23;4.50;;;;;;;-144.99;100.00;52446.06;5043579;28;20619;-72
2021/03/16 04:00:11;;;;;;;18.93;4.13;;;;;;;-144.99;100.00;52435.88;5046317;28;20659;-71
2021/03/16 04:02:38;;;;;;;12.47;3.77;;;;;;;-144.99;100.00;52431.78;5035976;28;21272;-72
2021/03/16 04:05:05;;;;;;;11.43;4.27;;;;;;;-144.99;100.00;52480.72;5042513;28;20628;-71
2021/03/16 04:07:32;;;;;;;14.27;3.43;;;;;;;-144.99;100.00;52462.34;5051414;28;20632;-71
2021/03/16 04:09:59;;;;;;;12.13;5.03;;;;;;;-144.99;100.00;52480.72;5051651;28;20651;-73
2021/03/16 04:12:25;;;;;;;14.00;3.53;;;;;;;-144.99;100.00;52448.09;5047892;28;20624;-72
2021/03/16 04:14:52;;;;;;;13.27;4.07;;;;;;;-144.99;100.00;52472.56;5051032;28;20644;-74
2021/03/16 04:17:18;;;;;;;16.03;5.83;;;;;;;-144.99;100.00;52415.47;5044966;28;20632;-72
2021/03/16 04:19:44;;;;;;;23.40;6.37;;;;;;;-144.99;100.00;52429.75;5047244;28;21224;-73
2021/03/16 04:22:11;;;;;;;20.23;5.97;;;;;;;-144.99;100.00;52488.84;5045608;28;20629;-73
2021/03/16 04:24:37;;;;;;;18.87;5.93;;;;;;;-144.99;100.00;52480.72;5050357;28;20693;-73
2021/03/16 04:27:04;;;;;;;14.93;5.70;;;;;;;-144.99;100.00;52464.41;5049281;28;20635;-72
2021/03/16 04:29:30;;;;;;;17.30;6.03;;;;;;;-144.99;100.00;52439.94;5047660;28;20712;-72
2021/03/16 04:31:56;;;;;;;20.57;9.97;;;;;;;-144.99;100.00;52480.72;5048151;28;20624;-73
2021/03/16 04:34:23;;;;;;;21.33;6.47;;;;;;;-144.99;100.00;52476.63;5048997;28;20252;-73
2021/03/16 04:36:49;;;;;;;17.37;6.17;;;;;;;-144.99;100.00;52454.22;5053300;28;20194;-74
2021/03/16 04:39:15;;;;;;;16.23;5.63;;;;;;;-144.99;100.00;52427.72;5052483;28;20676;-74
2021/03/16 04:41:41;;;;;;;18.37;5.10;;;;;;;-144.99;100.00;52433.81;5048535;28;20627;-73
2021/03/16 04:44:08;;;;;;;29.77;7.53;;;;;;;-144.99;100.00;52456.25;5045949;28;20221;-74
2021/03/16 04:46:34;;;;;;;20.20;5.50;;;;;;;-144.99;100.00;52421.59;5038602;28;20221;-75
2021/03/16 04:49:00;;;;;;;23.53;4.63;;;;;;;-144.99;100.00;52460.31;5041719;28;21262;-73
2021/03/16 04:51:27;;;;;;;18.47;5.23;;;;;;;-144.99;100.00;52417.53;5048383;28;20202;-75
2021/03/16 04:53:54;;;;;;;18.13;5.47;;;;;;;-144.99;100.00;52464.41;5051880;28;20317;-74
2021/03/16 04:56:20;;;;;;;16.43;4.93;;;;;;;-144.99;100.00;52433.81;5046728;28;20613;-73
2021/03/16 04:58:46;;;;;;;29.60;8.43;;;;;;;-144.99;100.00;52419.56;5051436;28;20728;-74
2021/03/16 05:01:13;;;;;;;17.50;5.90;;;;;;;-144.99;100.00;52456.25;5049259;28;20208;-74
2021/03/16 05:03:39;;;;;;;11.83;4.53;;;;;;;-144.99;100.00;52427.72;5044339;28;20643;-74
2021/03/16 05:06:05;;;;;;;22.70;5.30;;;;;;;-144.99;100.00;52452.16;5040137;28;21174;-73
2021/03/16 05:08:31;;;;;;;17.73;5.33;;;;;;;-144.99;100.00;52452.16;5040688;28;20278;-74
2021/03/16 05:10:57;;;;;;;23.30;4.47;;;;;;;-144.99;100.00;52431.78;5039688;28;20725;-74
2021/03/16 05:13:23;;;;;;;14.53;5.93;;;;;;;-144.99;100.00;52448.09;5047896;28;20405;-73
2021/03/16 05:15:49;;;;;;;13.87;5.37;;;;;;;-144.99;100.00;52456.25;5046690;28;20233;-73
2021/03/16 05:18:16;;;;;;;16.57;4.83;;;;;;;-144.99;100.00;52423.63;5045240;28;20283;-72
2021/03/16 05:20:43;;;;;;;15.30;4.80;;;;;;;-144.99;100.00;52395.09;5045170;28;20201;-68
2021/03/16 05:23:09;;;;;;;13.70;3.83;;;;;;;-144.99;100.00;52419.56;5042068;28;20637;-71
2021/03/16 05:25:35;;;;;;;26.70;8.73;;;;;;;-144.99;100.00;52427.72;5047773;28;20657;-70
2021/03/16 05:28:01;;;;;;;21.80;6.53;;;;;;;-144.99;100.00;52411.41;5048465;28;20640;-71
2021/03/16 05:30:27;;;;;;;16.63;3.80;;;;;;;-144.99;100.00;52397.13;5048155;28;20202;-75
2021/03/16 05:32:54;;;;;;;9.73;2.70;;;;;;;-144.99;100.00;52427.72;5045181;28;20628;-70
2021/03/16 05:35:21;;;;;;;19.17;5.10;;;;;;;-144.99;100.00;52415.47;5045785;28;20828;-71
2021/03/16 05:37:47;;;;;;;24.87;5.53;;;;;;;-144.99;100.00;52409.38;5045156;28;20639;-71
2021/03/16 05:40:14;;;;;;;13.47;4.47;;;;;;;-144.99;100.00;52444.03;5055367;28;20656;-71
2021/03/16 05:42:40;;;;;;;15.07;3.50;;;;;;;-144.99;100.00;52419.56;5050190;28;20198;-73
2021/03/16 05:45:07;;;;;;;15.37;3.87;;;;;;;-144.99;100.00;52391.03;5044212;28;20743;-74
2021/03/16 05:47:34;;;;;;;6.63;3.10;;;;;;;-144.99;100.00;52435.88;5047576;28;20635;-72
2021/03/16 05:50:01;;;;;;;14.10;7.20;;;;;;;-144.99;100.00;52452.16;5050667;28;20659;-73
2021/03/16 05:52:29;;;;;;;7.47;3.10;;;;;;;-144.99;100.00;52431.78;5046522;28;20631;-73
2021/03/16 05:54:55;;;;;;;15.90;6.87;;;;;;;-144.99;100.00;52415.47;5040824;28;20650;-73
2021/03/16 05:57:22;;;;;;;12.27;5.43;;;;;;;-144.99;100.00;52419.56;5039245;28;20624;-73
2021/03/16 05:59:48;;;;;;;7.80;4.30;;;;;;;-144.99;100.00;52425.66;5048224;28;20659;-73
2021/03/16 06:02:15;;;;;;;19.80;4.33;;;;;;;-144.99;100.00;52448.09;5035339;28;20640;-75
2021/03/16 06:04:42;;;;;;;14.27;3.43;;;;;;;-144.99;100.00;52378.78;5037578;28;20631;-74
2021/03/16 06:07:08;;;;;;;17.70;3.37;;;;;;;-144.99;100.00;52425.66;5044064;28;20702;-72
2021/03/16 06:09:37;;;;;;;11.27;3.42;;;;;;;-144.99;100.00;52431.78;4056596;28;10022463;-73
2021/03/16 06:12:04;;;;;;;12.63;4.50;;;;;;;-144.99;100.00;52431.78;5045854;28;20589;-72
2021/03/16 06:14:31;;;;;;;6.67;2.77;;;;;;;-144.99;100.00;52399.19;5038951;28;20655;-74
2021/03/16 06:16:58;;;;;;;8.60;2.93;;;;;;;-144.99;100.00;52472.56;5038997;28;20636;-74
2021/03/16 06:19:28;;;;;;;15.87;7.00;;;;;;;-144.99;100.00;52391.03;5042720;28;20749;-75
2021/03/16 06:21:58;;;;;;;13.43;4.10;;;;;;;-144.99;100.00;52456.25;5047260;28;20624;-74
2021/03/16 06:24:24;;;;;;;17.23;4.47;;;;;;;-144.99;100.00;52431.78;5041779;28;20639;-76
2021/03/16 06:26:51;;;;;;;7.73;3.07;;;;;;;-144.99;100.00;52448.09;5041539;28;21330;-75
2021/03/16 06:29:17;;;;;;;12.30;4.07;;;;;;;-144.99;100.00;52452.16;5048852;28;20650;-75
2021/03/16 06:31:43;;;;;;;19.00;4.50;;;;;;;-144.99;100.00;52431.78;5037994;28;20620;-75
2021/03/16 06:34:19;;;;;;;7.50;2.73;;;;;;;-144.99;100.00;52427.72;5047107;28;20320;-75
2021/03/16 06:36:47;;;;;;;14.43;4.97;;;;;;;-144.99;100.00;52431.78;5046684;28;21459;-76
2021/03/16 06:39:18;;;;;;;15.70;3.40;;;;;;;-144.99;100.00;52431.78;5043626;28;21483;-75
2021/03/16 06:41:44;;;;;;;14.43;3.23;;;;;;;-144.99;100.00;52407.31;5041152;28;20621;-73
2021/03/16 06:44:17;;;;;;;11.23;3.33;;;;;;;-144.99;100.00;52419.56;5048650;28;20638;-74
2021/03/16 06:46:43;;;;;;;12.10;2.60;;;;;;;-144.99;99.79;52431.78;5033836;28;20210;-74
2021/03/16 06:49:12;;;;;;;12.70;2.73;;;;;;;-144.99;99.53;52425.66;5046401;28;21114;-75
2021/03/16 06:51:38;;;;;;;10.73;3.33;;;;;;;-144.99;98.35;52427.72;5044665;28;20705;-74
2021/03/16 06:54:09;;;;;;;12.73;3.17;;;;;;;-144.99;97.65;52458.28;5043116;28;20644;-73
2021/03/16 06:56:35;;;;;;;11.07;4.87;;;;;;;-144.99;97.74;52419.56;5060199;28;20688;-77
2021/03/16 06:59:02;;;;;;;13.47;3.97;;;;;;;-144.99;96.56;52431.78;5040749;28;20677;-74
2021/03/16 07:01:31;;;;;;;10.17;3.67;;;;;;;-144.99;96.44;52437.91;5049792;28;20627;-76
2021/03/16 07:03:58;;;;;;;13.97;2.63;;;;;;;-144.99;96.22;52437.91;5044599;28;21228;-75
2021/03/16 07:06:24;;;;;;;11.63;2.77;;;;;;;-144.99;96.16;52439.94;5043116;28;20750;-76
2021/03/16 07:08:51;;;;;;;14.23;3.53;;;;;;;-144.99;96.09;52427.72;5039337;28;21074;-74
2021/03/16 07:11:19;;;;;;;13.13;3.53;;;;;;;-144.99;96.03;52431.78;5035998;28;20225;-75
2021/03/16 07:13:46;;;;;;;8.40;2.50;;;;;;;-144.99;95.89;52448.09;5043895;28;21241;-75
2021/03/16 07:16:13;;;;;;;7.00;2.40;;;;;;;-144.99;95.67;52431.78;5047603;28;20627;-74
2021/03/16 07:18:41;;;;;;;13.83;4.73;;;;;;;-144.99;95.56;52431.78;5038935;28;20739;-72
2021/03/16 07:21:09;;;;;;;12.50;2.47;;;;;;;-144.99;95.39;52468.47;5044375;28;20650;-74
2021/03/16 07:23:41;;;;;;;7.93;2.53;;;;;;;-144.99;95.22;52427.72;5048951;28;21287;-76
2021/03/16 07:26:08;;;;;;;16.23;8.47;;;;;;;-144.99;95.04;52399.19;5045257;28;20620;-75
2021/03/16 07:28:34;;;;;;;12.47;2.27;;;;;;;-144.99;94.78;52439.94;5048840;28;20663;-76
2021/03/16 07:31:01;;;;;;;14.60;2.60;;;;;;;-144.99;94.15;52452.16;5044546;28;20635;-74
2021/03/16 07:33:28;;;;;;;8.13;3.37;;;;;;;-144.99;94.06;52423.63;5040505;28;20632;-75
2021/03/16 07:35:55;;;;;;;13.73;4.40;;;;;;;-144.99;93.78;52419.56;5042463;28;20651;-74
2021/03/16 07:38:22;;;;;;;19.77;2.73;;;;;;;-144.99;93.80;52423.63;5032948;28;20636;-75
2021/03/16 07:40:49;;;;;;;12.43;2.83;;;;;;;-144.99;93.82;52444.03;5046390;28;20624;-74
2021/03/16 07:43:16;;;;;;;16.67;4.70;;;;;;;-144.99;93.45;52370.63;5040940;28;20625;-76
2021/03/16 07:45:42;;;;;;;6.67;2.03;;;;;;;-144.99;93.24;52419.56;5050621;28;21194;-78
2021/03/16 07:48:16;;;;;;;13.53;4.60;;;;;;;-144.99;92.58;52446.06;5057550;28;20645;-76
2021/03/16 07:50:42;;;;;;;13.30;3.20;;;;;;;-144.99;92.15;52423.63;5053093;28;20619;-76
2021/03/16 07:53:09;;;;;;;13.60;3.43;;;;;;;-144.99;91.65;52413.44;5049335;28;20640;-76
2021/03/16 07:55:35;;;;;;;13.20;3.23;;;;;;;-144.99;91.82;52444.03;5045649;28;21289;-74
2021/03/16 07:58:08;;;;;;;10.57;5.73;;;;;;;-144.99;91.50;52378.78;5045905;28;20682;-76
2021/03/16 08:00:35;;;;;;;10.70;3.50;;;;;;;-144.99;91.37;52403.25;5040489;28;20205;-77
2021/03/16 08:03:02;;;;;;;16.53;3.97;;;;;;;-144.99;90.72;52446.06;5046915;28;20635;-75
2021/03/16 08:05:39;;;;;;;10.13;3.00;;;;;;;-144.99;90.83;52395.09;5041615;28;20659;-75
2021/03/16 08:08:16;;;;;;;16.47;4.10;;;;;;;-144.99;90.84;52403.25;5053600;28;20628;-76
2021/03/16 08:10:43;;;;;;;13.30;3.77;;;;;;;-144.99;90.68;52386.94;5047284;28;20727;-73
2021/03/16 08:13:13;;;;;;;9.97;2.60;;;;;;;-144.99;90.78;52409.38;5044623;28;21385;-73
2021/03/16 08:15:41;;;;;;;12.87;3.13;;;;;;;-144.99;90.70;52415.47;5047286;28;20713;-75
2021/03/16 08:18:07;;;;;;;15.07;4.27;;;;;;;-144.99;90.50;52427.72;5050071;28;20633;-74
2021/03/16 08:20:33;;;;;;;12.03;2.23;;;;;;;-144.99;90.20;52415.47;5050961;28;20647;-76
2021/03/16 08:23:07;;;;;;;11.87;3.00;;;;;;;-144.99;89.64;52395.09;5050867;28;20642;-75
2021/03/16 08:25:34;;;;;;;22.33;7.17;;;;;;;-144.99;89.55;52421.59;5045114;28;20648;-77
2021/03/16 08:28:06;;;;;;;14.70;3.63;;;;;;;-144.99;89.23;52403.25;5055395;28;20646;-76
2021/03/16 08:30:37;;;;;;;20.80;6.10;;;;;;;-144.99;89.23;52407.31;5049379;28;20621;-76
2021/03/16 08:33:11;;;;;;;19.80;5.10;;;;;;;-144.99;89.13;52431.78;5052090;28;20893;-75
2021/03/16 08:35:40;;;;;;;20.93;3.87;;;;;;;-144.99;89.10;52399.19;5051352;28;20779;-74
2021/03/16 08:38:06;;;;;;;16.37;6.00;;;;;;;-144.99;88.90;52411.41;5042280;28;20635;-77
2021/03/16 08:40:32;;;;;;;16.13;2.93;;;;;;;-144.99;88.51;52433.81;5047016;28;20628;-74
2021/03/16 08:43:00;;;;;;;14.50;5.47;;;;;;;-144.99;88.86;52370.63;5040908;28;20711;-77
2021/03/16 08:45:28;;;;;;;17.77;3.93;;;;;;;-144.99;88.63;52407.31;5044693;28;21159;-78
2021/03/16 08:47:54;;;;;;;14.87;3.10;;;;;;;-144.99;87.87;52415.47;5039300;28;20210;-77
2021/03/16 08:50:22;;;;;;;19.13;5.23;;;;;;;-144.99;87.53;52388.97;5082637;22;20696;-74
2021/03/16 08:52:48;;;;;;;13.13;2.80;;;;;;;-144.99;86.58;52403.25;5071907;28;20265;-74
2021/03/16 08:55:23;;;;;;;15.73;4.47;;;;;;;-144.99;86.63;52403.25;5081787;28;20709;-73
2021/03/16 08:57:50;;;;;;;15.43;3.27;;;;;;;-144.99;86.31;52382.88;5078410;28;20204;-73
2021/03/16 09:00:18;;;;;;;12.80;3.50;;;;;;;-144.99;86.01;52370.63;5084603;28;20212;-73
2021/03/16 09:02:44;;;;;;;14.77;2.93;;;;;;;-144.99;85.39;52415.47;5082733;28;20197;-73
2021/03/16 09:05:19;;;;;;;13.73;2.70;;;;;;;-144.99;84.59;52382.88;5077534;28;20726;-73
2021/03/16 09:07:45;;;;;;;14.87;6.20;;;;;;;-144.99;83.78;52403.25;5075155;28;20225;-72
2021/03/16 09:10:12;;;;;;;15.93;3.97;;;;;;;-144.99;83.20;52407.31;5082216;28;20200;-73
2021/03/16 09:12:41;;;;;;;17.88;5.10;;;;;;;-144.99;83.52;52431.78;5071593;28;20764;-72
2021/03/16 09:15:09;;;;;;;20.23;5.20;;;;;;;-144.99;83.82;52370.63;5071088;28;20220;-72
2021/03/16 09:17:37;;;;;;;14.77;4.43;;;;;;;-144.99;83.34;52374.72;5081350;28;20200;-71
2021/03/16 09:20:10;;;;;;;15.47;3.97;;;;;;;-144.99;83.15;52435.88;5075378;28;20290;-74
2021/03/16 09:22:38;;;;;;;20.83;5.53;;;;;;;-144.99;83.41;52391.03;5074424;28;20224;-73
2021/03/16 09:25:05;;;;;;;12.97;4.13;;;;;;;-144.99;82.37;52386.94;5075354;28;20842;-72
2021/03/16 09:27:31;;;;;;;14.87;3.43;;;;;;;-144.99;80.83;52366.56;5082064;28;20196;-74
2021/03/16 09:29:58;;;;;;;10.07;3.80;;;;;;;-144.99;78.75;52386.94;5081295;28;20196;-72
2021/03/16 09:32:24;;;;;;;16.97;3.40;;;;;;;-144.99;78.06;52378.78;5083017;28;20208;-73
2021/03/16 09:34:51;;;;;;;17.00;3.70;;;;;;;-144.99;77.77;52407.31;5078076;28;20216;-74
2021/03/16 09:37:18;;;;;;;16.48;4.03;;;;;;;-144.99;77.51;52382.88;5083254;28;21336;-79
2021/03/16 09:39:52;;;;;;;9.53;4.53;;;;;;;-144.99;77.33;52370.63;5080353;28;20197;-75
2021/03/16 09:42:30;;;;;;;8.77;3.87;;;;;;;-144.99;77.96;52382.88;5073025;28;20200;-74
2021/03/16 09:44:58;;;;;;;9.27;3.53;;;;;;;-144.99;78.08;52415.47;5079027;28;20226;-73
2021/03/16 09:47:25;;;;;;;16.60;3.53;;;;;;;-144.99;77.91;52374.72;5081015;28;20203;-74
2021/03/16 09:50:05;;;;;;;14.27;5.40;;;;;;;-144.99;78.18;52370.63;5084321;28;20733;-72
2021/03/16 09:52:31;;;;;;;19.95;4.93;;;;;;;-144.99;77.74;52429.75;5081488;28;20809;-72
2021/03/16 09:54:57;;;;;;;12.23;4.63;;;;;;;-144.99;76.43;52378.78;5074238;28;20852;-74
2021/03/16 09:57:30;;;;;;;13.57;3.47;;;;;;;-144.99;76.18;52366.56;5084134;28;20200;-73
2021/03/16 09:59:57;;;;;;;8.60;3.57;;;;;;;-144.99;75.88;52419.56;5078712;28;20249;-73
2021/03/16 10:02:31;;;;;;;20.27;3.67;;;;;;;-144.99;75.42;52380.84;5072418;28;20227;-73
2021/03/16 10:05:04;;;;;;;8.43;3.57;;;;;;;-144.99;75.20;52399.19;5083808;28;20194;-73
2021/03/16 10:07:33;;;;;;;13.80;3.37;;;;;;;-144.99;75.87;52413.44;5084718;28;20200;-73
2021/03/16 10:10:14;;;;;;;9.23;3.37;;;;;;;-144.99;75.58;52378.78;5082306;28;20305;-73
2021/03/16 10:12:49;;;;;;;18.20;3.97;;;;;;;-144.99;75.71;52407.31;5078653;28;20286;-74
2021/03/16 10:15:24;;;;;;;12.37;3.77;;;;;;;-144.99;75.68;52401.22;5074808;28;20709;-74
2021/03/16 10:17:51;;;;;;;12.27;4.23;;;;;;;-144.99;75.14;52360.44;5074312;28;20207;-73
2021/03/16 10:20:25;;;;;;;10.13;2.80;;;;;;;-144.99;75.14;52362.50;5074637;28;20240;-73
2021/03/16 10:22:54;;;;;;;9.00;4.57;;;;;;;-144.99;75.00;52366.56;5084800;28;20241;-73
2021/03/16 10:25:23;;;;;;;9.80;3.03;;;;;;;-144.99;75.43;52407.31;5077422;28;20226;-73
2021/03/16 10:28:01;;;;;;;17.60;4.57;;;;;;;-144.99;74.75;52395.09;5082239;28;20201;-74
2021/03/16 10:30:32;;;;;;;12.43;2.80;;;;;;;-144.99;74.48;52362.50;5078243;28;20251;-72
2021/03/16 10:32:59;;;;;;;11.13;3.23;;;;;;;-144.99;74.29;52319.69;5084099;28;20203;-72
2021/03/16 10:35:26;;;;;;;9.07;2.70;;;;;;;-144.99;73.56;52358.41;5076084;28;20224;-73
2021/03/16 10:37:53;;;;;;;9.77;2.47;;;;;;;-144.99;72.87;52342.09;5076965;28;21002;-74
2021/03/16 10:40:19;;;;;;;14.43;5.13;;;;;;;-144.99;71.34;52366.56;5077733;28;20235;-73
2021/03/16 10:42:45;;;;;;;13.40;3.10;;;;;;;-144.99;70.85;52374.72;5077641;28;20223;-74
2021/03/16 10:45:12;;;;;;;10.73;3.53;;;;;;;-144.99;71.73;52382.88;5077735;28;20556;-72
2021/03/16 10:47:38;;;;;;;12.27;3.43;;;;;;;-144.99;71.55;52403.25;5071135;28;20203;-74
2021/03/16 10:50:06;;;;;;;7.90;2.53;;;;;;;-144.99;70.18;52293.19;5082338;28;20192;-74
2021/03/16 10:52:33;;;;;;;16.60;3.53;;;;;;;-144.99;66.73;52409.38;5086875;28;20206;-74
2021/03/16 10:54:59;;;;;;;9.37;3.53;;;;;;;-144.99;66.52;52354.34;5086466;28;20741;-74
2021/03/16 10:57:25;;;;;;;8.17;3.37;;;;;;;-144.99;65.54;52370.63;5087330;28;20314;-73
2021/03/16 10:59:51;;;;;;;17.03;4.30;;;;;;;-144.99;65.72;52366.56;5084952;28;20223;-73
2021/03/16 11:02:17;;;;;;;19.27;4.33;;;;;;;-144.99;66.50;52378.78;5074779;28;20917;-74
2021/03/16 11:04:43;;;;;;;10.00;2.80;;;;;;;-144.99;66.71;52386.94;5077522;28;20774;-73
2021/03/16 11:07:09;;;;;;;9.73;3.43;;;;;;;-144.99;66.53;52356.38;5088712;28;20233;-73
2021/03/16 11:09:35;;;;;;;10.13;2.23;;;;;;;-144.99;66.31;52374.72;5081261;28;20204;-74
2021/03/16 11:12:02;;;;;;;12.23;2.43;;;;;;;-144.99;66.19;52346.19;5083236;28;20312;-74